createdAt,value
2018-11-23T00:00:31.087Z,40.50
2018-11-23T00:03:01.522Z,36.13
2018-11-23T00:05:30.492Z,35.63
2018-11-23T00:07:59.955Z,38.23
2018-11-23T00:10:30.350Z,37.67
2018-11-23T00:12:59.402Z,37.47
2018-11-23T00:15:28.576Z,34.67
2018-11-23T00:17:57.531Z,37.03
2018-11-23T00:20:27.893Z,40.13
2018-11-23T00:22:56.877Z,34.83
2018-11-23T00:25:26.642Z,36.73
2018-11-23T00:27:56.410Z,38.23
2018-11-23T00:30:26.564Z,39.30
2018-11-23T00:32:55.936Z,37.50
2018-11-23T00:35:26.410Z,37.47
2018-11-23T00:37:55.833Z,40.83
2018-11-23T00:40:30.122Z,38.07
2018-11-23T00:42:59.479Z,38.70
2018-11-23T00:45:28.692Z,38.50
2018-11-23T00:47:58.587Z,38.67
2018-11-23T00:50:27.960Z,40.50
2018-11-23T00:52:58.082Z,39.23
2018-11-23T00:55:27.827Z,39.93
2018-11-23T00:57:56.807Z,36.07
2018-11-23T01:00:30.218Z,38.97
2018-11-23T01:03:00.043Z,37.47
2018-11-23T01:05:29.200Z,38.27
2018-11-23T01:07:58.481Z,38.53
2018-11-23T01:10:29.245Z,35.67
2018-11-23T01:12:59.078Z,37.97
2018-11-23T01:15:28.203Z,38.20
2018-11-23T01:17:57.288Z,43.63
2018-11-23T01:20:27.534Z,39.53
2018-11-23T01:22:57.401Z,37.60
2018-11-23T01:25:27.443Z,43.07
2018-11-23T01:27:57.281Z,40.13
2018-11-23T01:30:28.606Z,41.83
2018-11-23T01:32:58.090Z,36.77
2018-11-23T01:35:28.153Z,40.07
2018-11-23T01:37:57.362Z,39.10
2018-11-23T01:40:27.808Z,46.27
2018-11-23T01:42:57.322Z,38.97
2018-11-23T01:45:26.803Z,42.93
2018-11-23T01:47:56.041Z,39.80
2018-11-23T01:50:27.031Z,38.40
2018-11-23T01:52:57.067Z,39.27
2018-11-23T01:55:26.807Z,37.50
2018-11-23T01:57:56.080Z,39.33
2018-11-23T02:00:26.486Z,42.27
2018-11-23T02:02:56.164Z,40.30
2018-11-23T02:05:25.144Z,39.97
2018-11-23T02:07:54.450Z,39.47
2018-11-23T02:10:23.527Z,39.50
2018-11-23T02:12:52.887Z,40.13
2018-11-23T02:15:22.884Z,41.10
2018-11-23T02:17:52.257Z,42.30
2018-11-23T02:20:21.856Z,41.43
2018-11-23T02:22:51.041Z,41.23
2018-11-23T02:25:20.308Z,44.67
2018-11-23T02:27:49.562Z,40.23
2018-11-23T02:30:20.285Z,40.17
2018-11-23T02:32:49.418Z,40.27
2018-11-23T02:35:18.523Z,38.43
2018-11-23T02:37:48.002Z,45.07
2018-11-23T02:40:18.135Z,40.80
2018-11-23T02:42:47.442Z,42.43
2018-11-23T02:45:19.643Z,40.93
2018-11-23T02:47:49.125Z,47.33
2018-11-23T02:50:18.363Z,42.37
2018-11-23T02:52:47.966Z,42.07
2018-11-23T02:55:18.162Z,39.60
2018-11-23T02:57:47.203Z,40.70
2018-11-23T03:00:19.120Z,44.00
2018-11-23T03:02:49.356Z,43.20
2018-11-23T03:05:19.886Z,44.33
2018-11-23T03:07:48.844Z,42.40
2018-11-23T03:10:18.364Z,42.40
2018-11-23T03:12:48.722Z,40.30
2018-11-23T03:15:18.996Z,37.43
2018-11-23T03:17:48.507Z,36.80
2018-11-23T03:20:19.802Z,41.10
2018-11-23T03:22:49.003Z,43.80
2018-11-23T03:25:18.029Z,38.47
2018-11-23T03:27:47.083Z,40.07
2018-11-23T03:30:18.168Z,41.53
2018-11-23T03:32:48.231Z,38.07
2018-11-23T03:35:17.845Z,40.57
2018-11-23T03:37:47.363Z,43.83
2018-11-23T03:40:16.371Z,41.47
2018-11-23T03:42:45.322Z,41.10
2018-11-23T03:45:14.893Z,41.83
2018-11-23T03:47:44.401Z,37.73
2018-11-23T03:50:14.367Z,44.63
2018-11-23T03:52:43.765Z,39.83
2018-11-23T03:55:12.683Z,44.10
2018-11-23T03:57:41.672Z,39.60
2018-11-23T04:00:17.682Z,39.60
2018-11-23T04:02:46.243Z,39.23
2018-11-23T04:05:15.440Z,38.90
2018-11-23T04:07:44.555Z,43.00
2018-11-23T04:10:14.631Z,38.87
2018-11-23T04:12:44.123Z,45.47
2018-11-23T04:15:13.762Z,43.63
2018-11-23T04:17:43.681Z,41.00
2018-11-23T04:20:14.193Z,45.27
2018-11-23T04:22:43.387Z,45.20
2018-11-23T04:25:13.087Z,41.17
2018-11-23T04:27:42.552Z,39.03
2018-11-23T04:30:13.564Z,45.47
2018-11-23T04:32:42.603Z,43.87
2018-11-23T04:35:13.332Z,43.60
2018-11-23T04:37:43.380Z,44.33
2018-11-23T04:40:13.280Z,45.17
2018-11-23T04:42:42.681Z,45.37
2018-11-23T04:45:12.181Z,44.60
2018-11-23T04:47:41.483Z,41.33
2018-11-23T04:50:12.484Z,42.90
2018-11-23T04:52:41.482Z,45.30
2018-11-23T04:55:10.746Z,43.83
2018-11-23T04:57:39.992Z,39.00
2018-11-23T05:00:11.924Z,42.77
2018-11-23T05:02:41.242Z,44.47
2018-11-23T05:05:11.883Z,45.00
2018-11-23T05:07:41.309Z,46.67
2018-11-23T05:10:12.248Z,39.00
2018-11-23T05:12:41.454Z,46.07
2018-11-23T05:15:11.963Z,42.87
2018-11-23T05:17:41.162Z,41.03
2018-11-23T05:20:11.043Z,42.83
2018-11-23T05:22:40.887Z,43.33
2018-11-23T05:25:11.521Z,40.57
2018-11-23T05:27:41.973Z,41.83
2018-11-23T05:30:15.464Z,47.57
2018-11-23T05:32:45.289Z,41.17
2018-11-23T05:35:15.465Z,37.23
2018-11-23T05:37:44.558Z,41.47
2018-11-23T05:40:15.743Z,43.50
2018-11-23T05:42:45.010Z,39.13
2018-11-23T05:45:16.845Z,44.93
2018-11-23T05:47:46.309Z,41.77
2018-11-23T05:50:17.738Z,43.43
2018-11-23T05:52:46.910Z,42.27
2018-11-23T05:55:16.107Z,40.17
2018-11-23T05:57:45.322Z,46.83
2018-11-23T06:00:21.358Z,47.40
2018-11-23T06:02:50.979Z,41.67
2018-11-23T06:05:20.064Z,44.87
2018-11-23T06:07:49.209Z,44.40
2018-11-23T06:10:19.776Z,45.57
2018-11-23T06:12:48.842Z,42.30
2018-11-23T06:15:20.529Z,42.93
2018-11-23T06:17:50.131Z,48.63
2018-11-23T06:20:21.247Z,47.13
2018-11-23T06:22:51.413Z,43.17
2018-11-23T06:25:32.046Z,41.27
2018-11-23T06:28:01.521Z,43.30
2018-11-23T06:30:30.678Z,43.77
2018-11-23T06:33:10.543Z,45.30
2018-11-23T06:35:39.748Z,43.27
2018-11-23T06:38:08.732Z,41.17
2018-11-23T06:40:37.814Z,42.50
2018-11-23T06:43:07.137Z,41.87
2018-11-23T06:45:38.793Z,40.53
2018-11-23T06:48:08.885Z,45.47
2018-11-23T06:50:38.048Z,45.53
2018-11-23T06:53:07.617Z,40.53
2018-11-23T06:55:37.880Z,41.93
2018-11-23T06:58:07.175Z,44.20
2018-11-23T07:00:36.202Z,45.47
2018-11-23T07:03:05.397Z,43.53
2018-11-23T07:05:34.749Z,43.97
2018-11-23T07:08:03.923Z,39.00
2018-11-23T07:10:34.558Z,42.10
2018-11-23T07:13:03.977Z,41.60
2018-11-23T07:15:33.192Z,43.97
2018-11-23T07:18:08.509Z,42.53
2018-11-23T07:20:37.812Z,41.50
2018-11-23T07:23:07.208Z,37.40
2018-11-23T07:25:36.798Z,42.30
2018-11-23T07:28:06.054Z,45.30
2018-11-23T07:30:35.247Z,40.07
2018-11-23T07:33:04.499Z,42.97
2018-11-23T07:35:33.821Z,42.73
2018-11-23T07:38:03.082Z,41.30
2018-11-23T07:40:44.939Z,43.17
2018-11-23T07:43:14.600Z,41.77
2018-11-23T07:45:43.965Z,40.23
2018-11-23T07:48:13.591Z,41.97
2018-11-23T07:50:42.826Z,42.83
2018-11-23T07:53:13.801Z,43.77
2018-11-23T07:55:42.862Z,39.87
2018-11-23T07:58:12.036Z,44.10
2018-11-23T08:00:41.195Z,43.43
2018-11-23T08:03:10.290Z,43.13
2018-11-23T08:05:39.500Z,46.80
2018-11-23T08:08:09.566Z,40.47
2018-11-23T08:10:37.720Z,43.73
2018-11-23T08:13:07.003Z,38.07
2018-11-23T08:15:36.355Z,43.97
2018-11-23T08:18:05.663Z,36.13
2018-11-23T08:20:34.757Z,39.50
2018-11-23T08:23:04.732Z,44.53
2018-11-23T08:25:33.900Z,40.33
2018-11-23T08:28:03.024Z,39.77
2018-11-23T08:30:32.389Z,44.80
2018-11-23T08:33:01.588Z,38.00
2018-11-23T08:35:30.667Z,45.50
2018-11-23T08:38:00.191Z,39.70
2018-11-23T08:40:29.408Z,40.37
2018-11-23T08:42:58.920Z,40.77
2018-11-23T08:45:28.397Z,33.93
2018-11-23T08:47:58.119Z,38.03
2018-11-23T08:50:28.819Z,42.17
2018-11-23T08:52:58.910Z,36.77
2018-11-23T08:55:28.649Z,40.80
2018-11-23T08:57:58.010Z,41.33
2018-11-23T09:00:28.566Z,38.93
2018-11-23T09:02:59.523Z,36.57
2018-11-23T09:05:28.870Z,45.77
2018-11-23T09:07:58.595Z,40.00
2018-11-23T09:10:30.045Z,39.43
2018-11-23T09:13:01.183Z,41.70
2018-11-23T09:15:30.189Z,34.07
2018-11-23T09:17:59.483Z,41.17
2018-11-23T09:20:28.990Z,41.33
2018-11-23T09:22:58.274Z,37.97
2018-11-23T09:25:27.600Z,36.40
2018-11-23T09:27:56.762Z,40.90
2018-11-23T09:30:26.979Z,34.80
2018-11-23T09:32:56.980Z,37.03
2018-11-23T09:35:26.521Z,39.60
2018-11-23T09:37:55.624Z,35.13
2018-11-23T09:40:26.338Z,33.10
2018-11-23T09:42:55.948Z,38.43
2018-11-23T09:45:26.621Z,33.27
2018-11-23T09:47:57.355Z,33.23
2018-11-23T09:50:27.106Z,34.70
2018-11-23T09:52:57.740Z,36.30
2018-11-23T09:55:27.945Z,34.37
2018-11-23T09:57:59.238Z,32.67
2018-11-23T10:00:31.052Z,32.97
2018-11-23T10:03:02.067Z,33.17
2018-11-23T10:05:32.122Z,32.83
2018-11-23T10:08:06.790Z,32.53
2018-11-23T10:10:35.884Z,32.53
2018-11-23T10:13:05.261Z,30.87
2018-11-23T10:15:34.851Z,33.10
2018-11-23T10:18:04.153Z,31.97
2018-11-23T10:20:34.260Z,32.53
2018-11-23T10:23:03.375Z,31.87
2018-11-23T10:25:34.592Z,29.90
2018-11-23T10:28:03.865Z,31.50
2018-11-23T10:30:34.635Z,34.67
2018-11-23T10:33:05.557Z,33.10
2018-11-23T10:35:35.441Z,30.80
2018-11-23T10:38:05.617Z,34.13
2018-11-23T10:40:37.640Z,32.40
2018-11-23T10:43:07.364Z,31.13
2018-11-23T10:45:36.803Z,32.00
2018-11-23T10:48:07.008Z,32.70
2018-11-23T10:50:37.684Z,33.23
2018-11-23T10:53:07.431Z,31.30
2018-11-23T10:55:37.676Z,31.17
2018-11-23T10:58:06.945Z,33.27
2018-11-23T11:00:41.436Z,30.90
2018-11-23T11:03:17.538Z,33.23
2018-11-23T11:05:54.230Z,32.40
2018-11-23T11:08:23.266Z,29.83
2018-11-23T11:10:53.982Z,31.40
2018-11-23T11:13:23.358Z,28.03
2018-11-23T11:15:52.686Z,29.03
2018-11-23T11:18:22.149Z,31.87
2018-11-23T11:20:51.578Z,30.20
2018-11-23T11:23:21.198Z,29.40
2018-11-23T11:25:50.745Z,29.07
2018-11-23T11:28:20.794Z,31.77
2018-11-23T11:30:50.337Z,29.33
2018-11-23T11:33:19.765Z,26.40
2018-11-23T11:35:59.107Z,29.30
2018-11-23T11:38:29.496Z,30.43
2018-11-23T11:44:08.950Z,28.10
2018-11-23T11:46:40.257Z,29.27
2018-11-23T11:49:10.034Z,28.93
2018-11-23T11:51:41.974Z,26.47
2018-11-23T11:54:11.602Z,28.93
2018-11-23T11:56:41.248Z,28.23
2018-11-23T11:59:10.788Z,25.90
2018-11-23T12:01:40.389Z,26.37
2018-11-23T12:04:10.030Z,26.60
2018-11-23T12:06:39.588Z,27.60
2018-11-23T12:09:11.516Z,26.10
2018-11-23T12:11:41.414Z,26.60
2018-11-23T12:14:11.088Z,25.60
2018-11-23T12:16:46.921Z,27.87
2018-11-23T12:19:17.669Z,28.27
2018-11-23T12:21:48.227Z,27.60
2018-11-23T12:24:18.825Z,26.73
2018-11-23T12:26:49.726Z,26.57
2018-11-23T12:29:21.030Z,24.27
2018-11-23T12:31:50.845Z,25.70
2018-11-23T12:34:20.413Z,28.73
2018-11-23T12:36:49.723Z,25.23
2018-11-23T12:39:25.299Z,23.10
2018-11-23T12:41:54.793Z,26.97
2018-11-23T12:44:48.299Z,26.53
2018-11-23T12:47:22.554Z,26.97
2018-11-23T12:49:52.993Z,29.30
2018-11-23T12:52:22.422Z,27.63
2018-11-23T12:54:51.578Z,29.33
2018-11-23T12:57:20.645Z,26.37
2018-11-23T12:59:50.000Z,28.47
2018-11-23T13:02:19.221Z,27.20
2018-11-23T13:04:48.422Z,24.27
2018-11-23T13:07:17.573Z,27.57
2018-11-23T13:09:46.870Z,24.70
2018-11-23T13:12:16.054Z,25.20
2018-11-23T13:14:45.108Z,26.77
2018-11-23T13:17:14.191Z,25.67
2018-11-23T13:19:43.337Z,25.17
2018-11-23T13:22:12.465Z,25.87
2018-11-23T13:24:41.599Z,25.23
2018-11-23T13:27:16.672Z,26.67
2018-11-23T13:29:47.124Z,24.90
2018-11-23T13:32:16.592Z,25.33
2018-11-23T13:34:45.657Z,24.10
2018-11-23T13:37:14.719Z,26.63
2018-11-23T13:39:45.268Z,26.97
2018-11-23T13:42:14.434Z,26.87
2018-11-23T13:44:43.915Z,24.60
2018-11-23T13:47:13.110Z,29.43
2018-11-23T13:49:42.231Z,29.20
2018-11-23T13:52:11.198Z,29.90
2018-11-23T13:54:40.453Z,28.80
2018-11-23T13:57:09.645Z,28.07
2018-11-23T13:59:38.636Z,28.93
2018-11-23T14:02:08.222Z,30.03
2018-11-23T14:04:37.235Z,26.00
2018-11-23T14:07:06.374Z,29.20
2018-11-23T14:09:35.534Z,27.80
2018-11-23T14:12:04.673Z,27.30
2018-11-23T14:14:33.795Z,29.27
2018-11-23T14:17:03.800Z,25.93
2018-11-23T14:19:32.902Z,30.47
2018-11-23T14:22:02.058Z,26.77
2018-11-23T14:24:31.119Z,27.97
2018-11-23T14:27:00.288Z,25.53
2018-11-23T14:29:29.580Z,31.27
2018-11-23T14:31:58.804Z,28.30
2018-11-23T14:34:27.856Z,27.67
2018-11-23T14:36:57.023Z,27.90
2018-11-23T14:39:26.088Z,26.50
2018-11-23T14:41:55.295Z,27.10
2018-11-23T14:44:24.651Z,27.00
2018-11-23T14:46:54.179Z,27.17
2018-11-23T14:49:24.145Z,28.30
2018-11-23T14:51:54.293Z,26.97
2018-11-23T14:54:23.473Z,27.67
2018-11-23T14:56:52.955Z,28.87
2018-11-23T14:59:22.485Z,28.37
2018-11-23T15:01:52.312Z,28.97
2018-11-23T15:04:21.641Z,29.13
2018-11-23T15:06:50.872Z,29.57
2018-11-23T15:09:20.270Z,30.43
2018-11-23T15:11:49.446Z,30.47
2018-11-23T15:14:18.605Z,28.97
2018-11-23T15:16:47.609Z,30.17
2018-11-23T15:19:16.804Z,29.10
2018-11-23T15:21:46.049Z,27.10
2018-11-23T15:24:15.216Z,30.97
2018-11-23T15:26:44.184Z,29.40
2018-11-23T15:29:13.566Z,30.70
2018-11-23T15:31:42.592Z,30.03
2018-11-23T15:34:11.732Z,27.17
2018-11-23T15:36:40.796Z,33.40
2018-11-23T15:39:11.399Z,33.90
2018-11-23T15:41:41.564Z,30.97
2018-11-23T15:44:09.784Z,29.27
2018-11-23T15:46:38.812Z,33.77
2018-11-23T15:49:07.936Z,31.63
2018-11-23T15:51:36.991Z,34.37
2018-11-23T15:54:06.433Z,29.33
2018-11-23T15:56:35.606Z,30.13
2018-11-23T15:59:04.744Z,30.17
2018-11-23T16:01:33.688Z,30.70
2018-11-23T16:04:02.784Z,33.83
2018-11-23T16:06:31.837Z,31.23
2018-11-23T16:09:01.083Z,34.73
2018-11-23T16:11:30.053Z,33.27
2018-11-23T16:13:59.045Z,35.80
2018-11-23T16:16:28.390Z,34.07
2018-11-23T16:18:57.982Z,35.63
2018-11-23T16:21:27.163Z,37.23
2018-11-23T16:23:56.518Z,36.40
2018-11-23T16:26:25.551Z,30.93
2018-11-23T16:28:54.699Z,36.43
2018-11-23T16:31:24.313Z,37.53
2018-11-23T16:33:53.457Z,37.77
2018-11-23T16:36:22.778Z,37.83
2018-11-23T16:38:51.861Z,36.17
2018-11-23T16:41:21.206Z,34.50
2018-11-23T16:43:50.575Z,35.80
2018-11-23T16:46:19.684Z,37.43
2018-11-23T16:48:48.720Z,40.70
2018-11-23T16:51:18.048Z,36.00
2018-11-23T16:53:47.405Z,40.27
2018-11-23T16:56:16.595Z,37.50
2018-11-23T16:58:45.839Z,35.90
2018-11-23T17:01:14.871Z,35.23
2018-11-23T17:03:43.951Z,36.47
2018-11-23T17:06:13.079Z,39.23
2018-11-23T17:08:42.843Z,42.10
2018-11-23T17:11:13.054Z,35.87
2018-11-23T17:13:42.147Z,39.40
2018-11-23T17:16:11.201Z,37.17
2018-11-23T17:18:40.415Z,37.30
2018-11-23T17:21:09.408Z,40.10
2018-11-23T17:23:39.320Z,39.57
2018-11-23T17:26:08.724Z,39.23
2018-11-23T17:28:38.047Z,35.07
2018-11-23T17:31:07.689Z,35.10
2018-11-23T17:33:37.193Z,39.23
2018-11-23T17:36:06.645Z,39.27
2018-11-23T17:38:37.706Z,43.97
2018-11-23T17:41:06.749Z,39.60
2018-11-23T17:43:35.922Z,40.33
2018-11-23T17:46:05.039Z,36.63
2018-11-23T17:48:34.365Z,40.33
2018-11-23T17:51:03.791Z,41.80
2018-11-23T17:53:32.883Z,36.70
2018-11-23T17:56:02.131Z,38.70
2018-11-23T17:58:31.206Z,40.60
2018-11-23T18:01:00.602Z,37.47
2018-11-23T18:03:30.227Z,41.33
2018-11-23T18:05:59.976Z,34.93
2018-11-23T18:08:29.263Z,37.17
2018-11-23T18:10:58.449Z,34.23
2018-11-23T18:13:28.076Z,41.33
2018-11-23T18:15:57.374Z,40.50
2018-11-23T18:18:26.682Z,39.17
2018-11-23T18:20:55.760Z,39.40
2018-11-23T18:23:24.997Z,39.03
2018-11-23T18:25:54.732Z,38.37
2018-11-23T18:28:23.740Z,38.00
2018-11-23T18:30:52.800Z,38.83
2018-11-23T18:33:22.031Z,37.23
2018-11-23T18:35:51.623Z,38.03
2018-11-23T18:38:20.682Z,35.60
2018-11-23T18:40:49.923Z,34.60
2018-11-23T18:43:18.951Z,38.93
2018-11-23T18:45:48.081Z,38.37
2018-11-23T18:48:17.070Z,37.50
2018-11-23T18:50:46.069Z,38.10
2018-11-23T18:53:15.321Z,42.27
2018-11-23T18:55:44.452Z,34.37
2018-11-23T18:58:13.664Z,35.03
2018-11-23T19:00:44.485Z,39.43
2018-11-23T19:03:13.727Z,34.33
2018-11-23T19:05:42.808Z,32.10
2018-11-23T19:08:11.976Z,34.57
2018-11-23T19:10:40.996Z,34.63
2018-11-23T19:13:10.163Z,33.20
2018-11-23T19:15:39.336Z,33.07
2018-11-23T19:18:08.552Z,36.77
2018-11-23T19:20:37.844Z,34.53
2018-11-23T19:23:07.429Z,35.83
2018-11-23T19:25:36.562Z,35.07
2018-11-23T19:28:06.602Z,34.90
2018-11-23T19:30:35.848Z,40.43
2018-11-23T19:33:05.120Z,38.33
2018-11-23T19:35:34.399Z,32.43
2018-11-23T19:38:03.688Z,34.07
2018-11-23T19:40:32.727Z,32.70
2018-11-23T19:43:01.722Z,30.87
2018-11-23T19:45:30.925Z,32.23
2018-11-23T19:47:59.921Z,30.57
2018-11-23T19:50:29.040Z,30.30
2018-11-23T19:52:58.121Z,30.57
2018-11-23T19:55:27.211Z,30.87
2018-11-23T19:57:56.326Z,28.90
2018-11-23T20:00:26.468Z,29.67
2018-11-23T20:02:55.775Z,27.07
2018-11-23T20:05:24.959Z,30.17
2018-11-23T20:07:55.595Z,26.13
2018-11-23T20:10:25.202Z,27.30
2018-11-23T20:12:56.682Z,29.13
2018-11-23T20:15:25.727Z,31.80
2018-11-23T20:17:56.421Z,33.53
2018-11-23T20:20:25.990Z,27.60
2018-11-23T20:22:55.080Z,30.23
2018-11-23T20:25:25.089Z,32.27
2018-11-23T20:27:54.400Z,26.43
2018-11-23T20:30:24.083Z,27.43
2018-11-23T20:32:54.000Z,28.27
2018-11-23T20:35:23.644Z,27.63
2018-11-23T20:37:53.896Z,32.37
2018-11-23T20:40:23.820Z,32.10
2018-11-23T20:42:53.230Z,29.47
2018-11-23T20:45:22.426Z,31.23
2018-11-23T20:47:51.487Z,29.53
2018-11-23T20:50:20.805Z,35.87
2018-11-23T20:52:49.883Z,28.17
2018-11-23T20:55:20.309Z,32.70
2018-11-23T20:57:49.391Z,29.33
2018-11-23T21:00:20.450Z,33.37
2018-11-23T21:02:50.441Z,32.17
2018-11-23T21:05:20.649Z,29.77
2018-11-23T21:07:49.918Z,32.97
2018-11-23T21:10:20.744Z,32.07
2018-11-23T21:12:49.566Z,30.07
2018-11-23T21:15:23.721Z,33.73
2018-11-23T21:17:53.168Z,33.57
2018-11-23T21:20:22.286Z,31.73
2018-11-23T21:22:51.575Z,31.70
2018-11-23T21:25:20.883Z,31.93
2018-11-23T21:27:49.929Z,34.43
2018-11-23T21:30:21.142Z,31.13
2018-11-23T21:32:51.039Z,31.67
2018-11-23T21:35:21.112Z,29.70
2018-11-23T21:37:50.326Z,33.33
2018-11-23T21:40:19.489Z,30.20
2018-11-23T21:42:48.681Z,30.90
2018-11-23T21:45:18.861Z,29.80
2018-11-23T21:47:47.949Z,31.13
2018-11-23T21:50:25.115Z,31.60
2018-11-23T21:52:47.111Z,28.33
2018-11-23T21:55:21.047Z,29.80
2018-11-23T21:57:50.451Z,32.63
2018-11-23T22:00:19.640Z,30.83
2018-11-23T22:02:48.766Z,30.47
2018-11-23T22:05:18.155Z,31.27
2018-11-23T22:07:47.648Z,33.13
2018-11-23T22:10:18.842Z,31.40
2018-11-23T22:12:48.309Z,33.57
2018-11-23T22:15:25.457Z,30.47
2018-11-23T22:17:56.043Z,30.57
2018-11-23T22:20:26.006Z,32.53
2018-11-23T22:22:55.360Z,33.77
2018-11-23T22:25:24.683Z,32.13
2018-11-23T22:27:53.753Z,34.27
2018-11-23T22:30:24.683Z,30.70
2018-11-23T22:32:53.948Z,34.63
2018-11-23T22:35:22.962Z,31.70
2018-11-23T22:37:52.188Z,31.17
2018-11-23T22:40:21.656Z,33.27
2018-11-23T22:42:51.838Z,33.37
2018-11-23T22:45:21.056Z,29.87
2018-11-23T22:47:50.084Z,32.10
2018-11-23T22:50:21.337Z,33.60
2018-11-23T22:52:50.630Z,31.27
2018-11-23T22:55:20.362Z,33.90
2018-11-23T22:57:49.565Z,33.13
2018-11-23T23:00:26.521Z,32.60
2018-11-23T23:02:55.627Z,33.47
2018-11-23T23:05:25.182Z,37.00
2018-11-23T23:07:54.245Z,32.40
2018-11-23T23:10:23.442Z,32.53
2018-11-23T23:12:52.568Z,32.53
2018-11-23T23:15:22.403Z,32.70
2018-11-23T23:17:51.721Z,30.13
2018-11-23T23:20:22.150Z,32.13
2018-11-23T23:22:51.269Z,34.50
2018-11-23T23:25:20.315Z,34.60
2018-11-23T23:27:49.412Z,31.33
2018-11-23T23:30:19.111Z,35.93
2018-11-23T23:32:48.688Z,30.00
2018-11-23T23:35:27.619Z,33.67
2018-11-23T23:37:56.681Z,30.00
2018-11-23T23:40:25.798Z,31.30
2018-11-23T23:42:55.282Z,31.00
2018-11-23T23:45:24.496Z,35.37
2018-11-23T23:47:53.495Z,32.47
2018-11-23T23:50:22.791Z,33.80
2018-11-23T23:52:53.036Z,34.20
2018-11-23T23:55:22.045Z,30.63
2018-11-23T23:57:51.319Z,30.77
